sensor_id;sensor_type;location;lat;lon;timestamp;P1;durP1;ratioP1;P2;durP2;ratioP2
80510;SDS011;69840;53.040;8.600;2023-05-07T00:02:17;20.15;;;11.23;;
80510;SDS011;69840;53.040;8.600;2023-05-07T00:04:44;16.75;;;10.60;;
80510;SDS011;69840;53.040;8.600;2023-05-07T00:07:11;18.02;;;10.55;;
80510;SDS011;69840;53.040;8.600;2023-05-07T00:09:39;18.02;;;10.43;;
80510;SDS011;69840;53.040;8.600;2023-05-07T00:12:07;21.67;;;10.73;;
80510;SDS011;69840;53.040;8.600;2023-05-07T00:14:34;19.17;;;11.35;;
80510;SDS011;69840;53.040;8.600;2023-05-07T00:17:02;15.43;;;10.25;;
80510;SDS011;69840;53.040;8.600;2023-05-07T00:19:29;19.42;;;10.85;;
80510;SDS011;69840;53.040;8.600;2023-05-07T00:21:57;21.95;;;11.45;;
80510;SDS011;69840;53.040;8.600;2023-05-07T00:24:25;17.52;;;11.32;;
80510;SDS011;69840;53.040;8.600;2023-05-07T00:26:52;18.92;;;10.55;;
80510;SDS011;69840;53.040;8.600;2023-05-07T00:29:19;18.25;;;10.75;;
80510;SDS011;69840;53.040;8.600;2023-05-07T00:31:48;16.02;;;9.18;;
80510;SDS011;69840;53.040;8.600;2023-05-07T00:34:16;16.60;;;9.05;;
80510;SDS011;69840;53.040;8.600;2023-05-07T00:36:43;15.43;;;10.38;;
80510;SDS011;69840;53.040;8.600;2023-05-07T00:39:11;18.60;;;10.70;;
80510;SDS011;69840;53.040;8.600;2023-05-07T00:41:39;17.50;;;10.40;;
80510;SDS011;69840;53.040;8.600;2023-05-07T00:44:06;19.40;;;11.43;;
80510;SDS011;69840;53.040;8.600;2023-05-07T00:46:34;19.38;;;10.75;;
80510;SDS011;69840;53.040;8.600;2023-05-07T00:49:01;17.10;;;10.27;;
80510;SDS011;69840;53.040;8.600;2023-05-07T00:51:29;15.85;;;10.18;;
80510;SDS011;69840;53.040;8.600;2023-05-07T00:53:57;19.95;;;9.82;;
80510;SDS011;69840;53.040;8.600;2023-05-07T00:56:25;17.75;;;10.48;;
80510;SDS011;69840;53.040;8.600;2023-05-07T00:58:53;13.70;;;8.77;;
80510;SDS011;69840;53.040;8.600;2023-05-07T01:01:21;16.17;;;10.75;;
80510;SDS011;69840;53.040;8.600;2023-05-07T01:03:49;14.60;;;10.10;;
80510;SDS011;69840;53.040;8.600;2023-05-07T01:06:16;16.40;;;10.65;;
80510;SDS011;69840;53.040;8.600;2023-05-07T01:08:45;15.73;;;9.60;;
80510;SDS011;69840;53.040;8.600;2023-05-07T01:11:13;17.95;;;11.07;;
80510;SDS011;69840;53.040;8.600;2023-05-07T01:13:41;17.15;;;10.05;;
80510;SDS011;69840;53.040;8.600;2023-05-07T01:16:09;18.73;;;10.02;;
80510;SDS011;69840;53.040;8.600;2023-05-07T01:18:37;19.92;;;10.93;;
80510;SDS011;69840;53.040;8.600;2023-05-07T01:21:05;19.30;;;11.10;;
80510;SDS011;69840;53.040;8.600;2023-05-07T01:23:32;16.92;;;10.40;;
80510;SDS011;69840;53.040;8.600;2023-05-07T01:26:01;18.85;;;9.93;;
80510;SDS011;69840;53.040;8.600;2023-05-07T01:28:30;16.90;;;10.75;;
80510;SDS011;69840;53.040;8.600;2023-05-07T01:31:01;19.55;;;11.35;;
80510;SDS011;69840;53.040;8.600;2023-05-07T01:33:31;19.38;;;11.15;;
80510;SDS011;69840;53.040;8.600;2023-05-07T01:36:02;17.48;;;10.93;;
80510;SDS011;69840;53.040;8.600;2023-05-07T01:38:31;16.15;;;10.52;;
80510;SDS011;69840;53.040;8.600;2023-05-07T01:41:00;18.25;;;10.70;;
80510;SDS011;69840;53.040;8.600;2023-05-07T01:43:28;17.90;;;11.10;;
80510;SDS011;69840;53.040;8.600;2023-05-07T01:45:57;22.85;;;12.43;;
80510;SDS011;69840;53.040;8.600;2023-05-07T01:48:26;15.80;;;10.38;;
80510;SDS011;69840;53.040;8.600;2023-05-07T01:50:54;16.00;;;9.77;;
80510;SDS011;69840;53.040;8.600;2023-05-07T01:53:22;19.10;;;10.73;;
80510;SDS011;69840;53.040;8.600;2023-05-07T01:55:50;17.50;;;11.35;;
80510;SDS011;69840;53.040;8.600;2023-05-07T01:58:19;18.55;;;10.52;;
80510;SDS011;69840;53.040;8.600;2023-05-07T02:00:46;16.33;;;9.75;;
80510;SDS011;69840;53.040;8.600;2023-05-07T02:03:14;14.52;;;8.35;;
80510;SDS011;69840;53.040;8.600;2023-05-07T02:05:51;17.80;;;11.02;;
80510;SDS011;69840;53.040;8.600;2023-05-07T02:08:26;18.83;;;11.70;;
80510;SDS011;69840;53.040;8.600;2023-05-07T02:10:55;21.10;;;11.45;;
80510;SDS011;69840;53.040;8.600;2023-05-07T02:13:22;18.98;;;12.05;;
80510;SDS011;69840;53.040;8.600;2023-05-07T02:15:50;17.15;;;10.45;;
80510;SDS011;69840;53.040;8.600;2023-05-07T02:18:18;18.95;;;10.93;;
80510;SDS011;69840;53.040;8.600;2023-05-07T02:20:45;20.60;;;11.63;;
80510;SDS011;69840;53.040;8.600;2023-05-07T02:23:13;17.77;;;11.52;;
80510;SDS011;69840;53.040;8.600;2023-05-07T02:25:40;21.27;;;11.32;;
80510;SDS011;69840;53.040;8.600;2023-05-07T02:28:08;19.52;;;11.20;;
80510;SDS011;69840;53.040;8.600;2023-05-07T02:30:45;17.30;;;11.30;;
80510;SDS011;69840;53.040;8.600;2023-05-07T02:33:13;16.35;;;10.50;;
80510;SDS011;69840;53.040;8.600;2023-05-07T02:35:40;16.63;;;10.13;;
80510;SDS011;69840;53.040;8.600;2023-05-07T02:38:09;15.43;;;7.72;;
80510;SDS011;69840;53.040;8.600;2023-05-07T02:40:38;19.58;;;9.98;;
80510;SDS011;69840;53.040;8.600;2023-05-07T02:43:05;17.85;;;9.98;;
80510;SDS011;69840;53.040;8.600;2023-05-07T02:45:33;15.30;;;8.88;;
80510;SDS011;69840;53.040;8.600;2023-05-07T02:48:02;18.73;;;10.00;;
80510;SDS011;69840;53.040;8.600;2023-05-07T02:50:30;13.23;;;7.63;;
80510;SDS011;69840;53.040;8.600;2023-05-07T02:52:59;12.48;;;8.07;;
80510;SDS011;69840;53.040;8.600;2023-05-07T02:55:26;19.38;;;8.60;;
80510;SDS011;69840;53.040;8.600;2023-05-07T02:57:54;16.77;;;9.88;;
80510;SDS011;69840;53.040;8.600;2023-05-07T03:00:22;18.42;;;8.85;;
80510;SDS011;69840;53.040;8.600;2023-05-07T03:02:58;17.60;;;10.98;;
80510;SDS011;69840;53.040;8.600;2023-05-07T03:05:26;17.67;;;9.90;;
80510;SDS011;69840;53.040;8.600;2023-05-07T03:07:53;17.17;;;10.43;;
80510;SDS011;69840;53.040;8.600;2023-05-07T03:10:21;19.70;;;9.82;;
80510;SDS011;69840;53.040;8.600;2023-05-07T03:12:48;19.60;;;10.38;;
80510;SDS011;69840;53.040;8.600;2023-05-07T03:15:17;16.25;;;9.70;;
80510;SDS011;69840;53.040;8.600;2023-05-07T03:17:44;20.75;;;10.07;;
80510;SDS011;69840;53.040;8.600;2023-05-07T03:20:12;20.58;;;10.00;;
80510;SDS011;69840;53.040;8.600;2023-05-07T03:22:40;15.48;;;7.97;;
80510;SDS011;69840;53.040;8.600;2023-05-07T03:25:08;15.70;;;8.05;;
80510;SDS011;69840;53.040;8.600;2023-05-07T03:27:35;17.73;;;9.57;;
80510;SDS011;69840;53.040;8.600;2023-05-07T03:30:03;13.07;;;9.00;;
80510;SDS011;69840;53.040;8.600;2023-05-07T03:32:31;17.40;;;9.23;;
80510;SDS011;69840;53.040;8.600;2023-05-07T03:34:59;14.68;;;8.25;;
80510;SDS011;69840;53.040;8.600;2023-05-07T03:37:26;16.90;;;8.52;;
80510;SDS011;69840;53.040;8.600;2023-05-07T03:39:54;18.42;;;9.05;;
80510;SDS011;69840;53.040;8.600;2023-05-07T03:42:21;17.23;;;9.52;;
80510;SDS011;69840;53.040;8.600;2023-05-07T03:44:51;15.95;;;9.77;;
80510;SDS011;69840;53.040;8.600;2023-05-07T03:47:19;20.13;;;10.00;;
80510;SDS011;69840;53.040;8.600;2023-05-07T03:49:47;15.48;;;7.95;;
80510;SDS011;69840;53.040;8.600;2023-05-07T03:52:14;12.02;;;7.72;;
80510;SDS011;69840;53.040;8.600;2023-05-07T03:54:42;20.20;;;9.32;;
80510;SDS011;69840;53.040;8.600;2023-05-07T03:57:11;16.10;;;8.55;;
80510;SDS011;69840;53.040;8.600;2023-05-07T03:59:39;17.17;;;9.85;;
80510;SDS011;69840;53.040;8.600;2023-05-07T04:02:08;13.50;;;8.48;;
80510;SDS011;69840;53.040;8.600;2023-05-07T04:04:35;13.38;;;8.77;;
80510;SDS011;69840;53.040;8.600;2023-05-07T04:07:03;16.08;;;9.13;;
80510;SDS011;69840;53.040;8.600;2023-05-07T04:09:35;17.67;;;9.70;;
80510;SDS011;69840;53.040;8.600;2023-05-07T04:12:03;18.92;;;9.15;;
80510;SDS011;69840;53.040;8.600;2023-05-07T04:14:31;18.95;;;9.57;;
80510;SDS011;69840;53.040;8.600;2023-05-07T04:17:00;20.30;;;9.35;;
80510;SDS011;69840;53.040;8.600;2023-05-07T04:19:28;20.38;;;11.18;;
80510;SDS011;69840;53.040;8.600;2023-05-07T04:21:55;16.45;;;9.60;;
80510;SDS011;69840;53.040;8.600;2023-05-07T04:24:23;18.27;;;9.75;;
80510;SDS011;69840;53.040;8.600;2023-05-07T04:26:50;14.23;;;8.30;;
80510;SDS011;69840;53.040;8.600;2023-05-07T04:29:20;14.25;;;8.30;;
80510;SDS011;69840;53.040;8.600;2023-05-07T04:31:48;17.25;;;9.13;;
80510;SDS011;69840;53.040;8.600;2023-05-07T04:34:15;16.88;;;9.80;;
80510;SDS011;69840;53.040;8.600;2023-05-07T04:36:43;19.65;;;10.45;;
80510;SDS011;69840;53.040;8.600;2023-05-07T04:39:12;16.33;;;8.93;;
80510;SDS011;69840;53.040;8.600;2023-05-07T04:41:43;17.88;;;10.43;;
80510;SDS011;69840;53.040;8.600;2023-05-07T04:44:11;15.45;;;8.52;;
80510;SDS011;69840;53.040;8.600;2023-05-07T04:46:38;18.95;;;9.55;;
80510;SDS011;69840;53.040;8.600;2023-05-07T04:49:05;16.98;;;8.98;;
80510;SDS011;69840;53.040;8.600;2023-05-07T04:51:34;17.25;;;8.77;;
80510;SDS011;69840;53.040;8.600;2023-05-07T04:54:01;18.02;;;10.38;;
80510;SDS011;69840;53.040;8.600;2023-05-07T04:56:30;17.20;;;8.75;;
80510;SDS011;69840;53.040;8.600;2023-05-07T04:58:59;15.75;;;8.63;;
80510;SDS011;69840;53.040;8.600;2023-05-07T05:01:28;14.35;;;9.30;;
80510;SDS011;69840;53.040;8.600;2023-05-07T05:03:56;16.27;;;9.80;;
80510;SDS011;69840;53.040;8.600;2023-05-07T05:06:23;16.48;;;8.98;;
80510;SDS011;69840;53.040;8.600;2023-05-07T05:08:51;12.70;;;8.05;;
80510;SDS011;69840;53.040;8.600;2023-05-07T05:11:19;18.30;;;10.25;;
80510;SDS011;69840;53.040;8.600;2023-05-07T05:13:47;15.05;;;9.43;;
80510;SDS011;69840;53.040;8.600;2023-05-07T05:16:18;15.10;;;9.23;;
80510;SDS011;69840;53.040;8.600;2023-05-07T05:18:47;16.02;;;9.00;;
80510;SDS011;69840;53.040;8.600;2023-05-07T05:23:48;18.08;;;8.10;;
80510;SDS011;69840;53.040;8.600;2023-05-07T05:26:20;14.85;;;8.50;;
80510;SDS011;69840;53.040;8.600;2023-05-07T05:28:48;17.05;;;8.75;;
80510;SDS011;69840;53.040;8.600;2023-05-07T05:31:18;12.85;;;8.40;;
80510;SDS011;69840;53.040;8.600;2023-05-07T05:33:46;15.40;;;7.25;;
80510;SDS011;69840;53.040;8.600;2023-05-07T05:36:14;14.15;;;7.57;;
80510;SDS011;69840;53.040;8.600;2023-05-07T05:38:43;15.93;;;8.20;;
80510;SDS011;69840;53.040;8.600;2023-05-07T05:41:11;12.70;;;6.93;;
80510;SDS011;69840;53.040;8.600;2023-05-07T05:43:39;15.93;;;8.45;;
80510;SDS011;69840;53.040;8.600;2023-05-07T05:46:06;17.30;;;8.90;;
80510;SDS011;69840;53.040;8.600;2023-05-07T05:48:34;17.65;;;9.70;;
80510;SDS011;69840;53.040;8.600;2023-05-07T05:51:03;14.15;;;9.93;;
80510;SDS011;69840;53.040;8.600;2023-05-07T05:53:31;13.88;;;8.90;;
80510;SDS011;69840;53.040;8.600;2023-05-07T05:55:58;9.73;;;5.78;;
80510;SDS011;69840;53.040;8.600;2023-05-07T05:58:26;13.50;;;8.52;;
80510;SDS011;69840;53.040;8.600;2023-05-07T06:00:59;14.85;;;7.80;;
80510;SDS011;69840;53.040;8.600;2023-05-07T06:03:27;18.75;;;8.40;;
80510;SDS011;69840;53.040;8.600;2023-05-07T06:05:57;13.85;;;7.72;;
80510;SDS011;69840;53.040;8.600;2023-05-07T06:08:25;14.55;;;7.28;;
80510;SDS011;69840;53.040;8.600;2023-05-07T06:10:56;13.80;;;7.82;;
80510;SDS011;69840;53.040;8.600;2023-05-07T06:13:24;13.15;;;7.30;;
80510;SDS011;69840;53.040;8.600;2023-05-07T06:15:52;12.82;;;7.47;;
80510;SDS011;69840;53.040;8.600;2023-05-07T06:18:20;14.75;;;6.78;;
80510;SDS011;69840;53.040;8.600;2023-05-07T06:20:47;11.68;;;7.68;;
80510;SDS011;69840;53.040;8.600;2023-05-07T06:23:23;14.63;;;7.75;;
80510;SDS011;69840;53.040;8.600;2023-05-07T06:25:50;13.25;;;7.75;;
80510;SDS011;69840;53.040;8.600;2023-05-07T06:28:22;11.27;;;7.32;;
80510;SDS011;69840;53.040;8.600;2023-05-07T06:30:51;12.27;;;6.65;;
80510;SDS011;69840;53.040;8.600;2023-05-07T06:33:18;13.73;;;6.65;;
80510;SDS011;69840;53.040;8.600;2023-05-07T06:35:45;11.15;;;7.38;;
80510;SDS011;69840;53.040;8.600;2023-05-07T06:38:13;12.15;;;6.80;;
80510;SDS011;69840;53.040;8.600;2023-05-07T06:40:41;11.30;;;7.55;;
80510;SDS011;69840;53.040;8.600;2023-05-07T06:43:09;9.95;;;6.60;;
80510;SDS011;69840;53.040;8.600;2023-05-07T06:45:52;11.90;;;7.20;;
80510;SDS011;69840;53.040;8.600;2023-05-07T06:48:20;11.38;;;6.75;;
80510;SDS011;69840;53.040;8.600;2023-05-07T06:50:58;10.52;;;5.97;;
80510;SDS011;69840;53.040;8.600;2023-05-07T06:53:26;10.65;;;6.60;;
80510;SDS011;69840;53.040;8.600;2023-05-07T06:55:55;7.45;;;5.65;;
80510;SDS011;69840;53.040;8.600;2023-05-07T06:58:23;8.73;;;5.50;;
80510;SDS011;69840;53.040;8.600;2023-05-07T07:00:51;8.90;;;6.70;;
80510;SDS011;69840;53.040;8.600;2023-05-07T07:03:19;9.13;;;6.00;;
80510;SDS011;69840;53.040;8.600;2023-05-07T07:05:46;10.85;;;6.80;;
80510;SDS011;69840;53.040;8.600;2023-05-07T07:08:13;10.55;;;6.40;;
80510;SDS011;69840;53.040;8.600;2023-05-07T07:10:41;8.23;;;6.10;;
80510;SDS011;69840;53.040;8.600;2023-05-07T07:13:08;10.23;;;5.40;;
80510;SDS011;69840;53.040;8.600;2023-05-07T07:15:36;9.13;;;6.45;;
80510;SDS011;69840;53.040;8.600;2023-05-07T07:18:04;10.68;;;6.32;;
80510;SDS011;69840;53.040;8.600;2023-05-07T07:20:31;8.57;;;6.05;;
80510;SDS011;69840;53.040;8.600;2023-05-07T07:23:00;10.63;;;6.82;;
80510;SDS011;69840;53.040;8.600;2023-05-07T07:25:27;10.73;;;7.13;;
80510;SDS011;69840;53.040;8.600;2023-05-07T07:27:55;9.45;;;6.38;;
80510;SDS011;69840;53.040;8.600;2023-05-07T07:30:24;11.95;;;7.80;;
80510;SDS011;69840;53.040;8.600;2023-05-07T07:32:53;12.52;;;7.50;;
80510;SDS011;69840;53.040;8.600;2023-05-07T07:35:20;11.10;;;6.93;;
80510;SDS011;69840;53.040;8.600;2023-05-07T07:37:48;10.70;;;6.95;;
80510;SDS011;69840;53.040;8.600;2023-05-07T07:40:16;10.23;;;6.80;;
80510;SDS011;69840;53.040;8.600;2023-05-07T07:42:45;10.43;;;7.38;;
80510;SDS011;69840;53.040;8.600;2023-05-07T07:45:13;12.55;;;8.45;;
80510;SDS011;69840;53.040;8.600;2023-05-07T07:47:44;10.30;;;7.18;;
80510;SDS011;69840;53.040;8.600;2023-05-07T07:50:12;11.45;;;7.10;;
80510;SDS011;69840;53.040;8.600;2023-05-07T07:52:43;10.07;;;6.53;;
80510;SDS011;69840;53.040;8.600;2023-05-07T07:55:14;12.18;;;7.55;;
80510;SDS011;69840;53.040;8.600;2023-05-07T07:57:42;12.13;;;7.60;;
80510;SDS011;69840;53.040;8.600;2023-05-07T08:00:10;10.05;;;7.90;;
80510;SDS011;69840;53.040;8.600;2023-05-07T08:02:43;10.95;;;7.30;;
80510;SDS011;69840;53.040;8.600;2023-05-07T08:05:19;11.55;;;7.03;;
80510;SDS011;69840;53.040;8.600;2023-05-07T08:07:47;13.07;;;7.97;;
80510;SDS011;69840;53.040;8.600;2023-05-07T08:10:15;10.75;;;8.20;;
80510;SDS011;69840;53.040;8.600;2023-05-07T08:12:43;11.57;;;6.88;;
80510;SDS011;69840;53.040;8.600;2023-05-07T08:15:10;9.38;;;6.95;;
80510;SDS011;69840;53.040;8.600;2023-05-07T08:17:38;10.50;;;7.57;;
80510;SDS011;69840;53.040;8.600;2023-05-07T08:20:06;9.65;;;6.53;;
80510;SDS011;69840;53.040;8.600;2023-05-07T08:22:36;9.85;;;6.53;;
80510;SDS011;69840;53.040;8.600;2023-05-07T08:25:05;8.25;;;6.32;;
80510;SDS011;69840;53.040;8.600;2023-05-07T08:27:33;10.73;;;6.35;;
80510;SDS011;69840;53.040;8.600;2023-05-07T08:30:01;10.27;;;6.47;;
80510;SDS011;69840;53.040;8.600;2023-05-07T08:32:29;10.73;;;6.55;;
80510;SDS011;69840;53.040;8.600;2023-05-07T08:34:57;7.43;;;5.53;;
80510;SDS011;69840;53.040;8.600;2023-05-07T08:37:24;7.10;;;5.63;;
80510;SDS011;69840;53.040;8.600;2023-05-07T08:39:52;8.18;;;5.90;;
80510;SDS011;69840;53.040;8.600;2023-05-07T08:42:23;8.77;;;6.07;;
80510;SDS011;69840;53.040;8.600;2023-05-07T08:44:51;9.35;;;6.93;;
80510;SDS011;69840;53.040;8.600;2023-05-07T08:47:20;8.95;;;6.80;;
80510;SDS011;69840;53.040;8.600;2023-05-07T08:49:52;8.65;;;6.32;;
80510;SDS011;69840;53.040;8.600;2023-05-07T08:52:22;8.77;;;6.60;;
80510;SDS011;69840;53.040;8.600;2023-05-07T08:54:50;8.43;;;6.35;;
80510;SDS011;69840;53.040;8.600;2023-05-07T08:57:18;8.98;;;5.88;;
80510;SDS011;69840;53.040;8.600;2023-05-07T08:59:46;8.00;;;6.50;;
80510;SDS011;69840;53.040;8.600;2023-05-07T09:02:14;8.15;;;7.35;;
80510;SDS011;69840;53.040;8.600;2023-05-07T09:04:42;9.38;;;6.63;;
80510;SDS011;69840;53.040;8.600;2023-05-07T09:07:10;8.10;;;6.40;;
80510;SDS011;69840;53.040;8.600;2023-05-07T09:09:41;7.65;;;5.65;;
80510;SDS011;69840;53.040;8.600;2023-05-07T09:12:11;7.38;;;6.15;;
80510;SDS011;69840;53.040;8.600;2023-05-07T09:14:40;10.50;;;6.93;;
80510;SDS011;69840;53.040;8.600;2023-05-07T09:17:07;9.02;;;5.90;;
80510;SDS011;69840;53.040;8.600;2023-05-07T09:19:35;7.30;;;5.47;;
80510;SDS011;69840;53.040;8.600;2023-05-07T09:22:05;8.57;;;6.18;;
80510;SDS011;69840;53.040;8.600;2023-05-07T09:24:49;7.82;;;6.13;;
80510;SDS011;69840;53.040;8.600;2023-05-07T09:27:21;8.07;;;5.82;;
80510;SDS011;69840;53.040;8.600;2023-05-07T09:29:49;7.50;;;6.03;;
80510;SDS011;69840;53.040;8.600;2023-05-07T09:32:17;6.88;;;5.45;;
80510;SDS011;69840;53.040;8.600;2023-05-07T09:34:45;11.02;;;5.72;;
80510;SDS011;69840;53.040;8.600;2023-05-07T09:37:13;8.20;;;5.82;;
80510;SDS011;69840;53.040;8.600;2023-05-07T09:39:49;6.95;;;4.53;;
80510;SDS011;69840;53.040;8.600;2023-05-07T09:42:24;8.85;;;7.13;;
80510;SDS011;69840;53.040;8.600;2023-05-07T09:44:52;8.50;;;5.95;;
80510;SDS011;69840;53.040;8.600;2023-05-07T09:47:23;8.15;;;5.75;;
80510;SDS011;69840;53.040;8.600;2023-05-07T09:49:55;11.32;;;5.93;;
80510;SDS011;69840;53.040;8.600;2023-05-07T09:52:24;8.88;;;6.38;;
80510;SDS011;69840;53.040;8.600;2023-05-07T09:54:55;8.38;;;6.40;;
80510;SDS011;69840;53.040;8.600;2023-05-07T09:57:27;7.97;;;6.78;;
80510;SDS011;69840;53.040;8.600;2023-05-07T10:00:01;8.57;;;6.10;;
80510;SDS011;69840;53.040;8.600;2023-05-07T10:02:33;8.05;;;4.82;;
80510;SDS011;69840;53.040;8.600;2023-05-07T10:05:03;6.07;;;5.07;;
80510;SDS011;69840;53.040;8.600;2023-05-07T10:07:34;8.02;;;6.65;;
80510;SDS011;69840;53.040;8.600;2023-05-07T10:10:06;7.47;;;5.97;;
80510;SDS011;69840;53.040;8.600;2023-05-07T10:12:40;8.98;;;5.85;;
80510;SDS011;69840;53.040;8.600;2023-05-07T10:15:14;7.95;;;6.65;;
80510;SDS011;69840;53.040;8.600;2023-05-07T10:17:46;7.80;;;5.03;;
80510;SDS011;69840;53.040;8.600;2023-05-07T10:20:16;7.50;;;5.18;;
80510;SDS011;69840;53.040;8.600;2023-05-07T10:22:46;7.65;;;5.03;;
80510;SDS011;69840;53.040;8.600;2023-05-07T10:28:06;8.38;;;6.70;;
80510;SDS011;69840;53.040;8.600;2023-05-07T10:33:37;7.93;;;6.60;;
80510;SDS011;69840;53.040;8.600;2023-05-07T10:36:08;11.43;;;7.68;;
80510;SDS011;69840;53.040;8.600;2023-05-07T10:38:35;9.32;;;5.82;;
80510;SDS011;69840;53.040;8.600;2023-05-07T10:41:04;8.13;;;6.43;;
80510;SDS011;69840;53.040;8.600;2023-05-07T10:43:44;12.05;;;7.07;;
80510;SDS011;69840;53.040;8.600;2023-05-07T10:46:20;7.35;;;5.07;;
80510;SDS011;69840;53.040;8.600;2023-05-07T10:49:06;8.00;;;5.63;;
80510;SDS011;69840;53.040;8.600;2023-05-07T10:51:42;8.15;;;6.75;;
80510;SDS011;69840;53.040;8.600;2023-05-07T10:54:19;7.88;;;6.22;;
80510;SDS011;69840;53.040;8.600;2023-05-07T11:05:36;11.07;;;6.78;;
80510;SDS011;69840;53.040;8.600;2023-05-07T11:08:14;9.30;;;7.10;;
80510;SDS011;69840;53.040;8.600;2023-05-07T11:10:52;7.80;;;6.43;;
80510;SDS011;69840;53.040;8.600;2023-05-07T11:13:44;9.85;;;6.90;;
80510;SDS011;69840;53.040;8.600;2023-05-07T11:16:39;8.38;;;6.45;;
80510;SDS011;69840;53.040;8.600;2023-05-07T11:19:16;9.07;;;6.53;;
80510;SDS011;69840;53.040;8.600;2023-05-07T11:21:48;10.00;;;6.55;;
80510;SDS011;69840;53.040;8.600;2023-05-07T11:24:40;10.23;;;7.63;;
80510;SDS011;69840;53.040;8.600;2023-05-07T11:27:11;9.38;;;7.03;;
80510;SDS011;69840;53.040;8.600;2023-05-07T11:29:40;8.77;;;6.43;;
80510;SDS011;69840;53.040;8.600;2023-05-07T11:32:14;9.13;;;6.80;;
80510;SDS011;69840;53.040;8.600;2023-05-07T11:34:52;11.65;;;7.82;;
80510;SDS011;69840;53.040;8.600;2023-05-07T11:37:24;9.45;;;7.00;;
80510;SDS011;69840;53.040;8.600;2023-05-07T11:40:04;9.82;;;7.00;;
80510;SDS011;69840;53.040;8.600;2023-05-07T11:42:34;10.13;;;7.55;;
80510;SDS011;69840;53.040;8.600;2023-05-07T11:45:03;8.93;;;7.22;;
80510;SDS011;69840;53.040;8.600;2023-05-07T11:47:31;11.63;;;7.18;;
80510;SDS011;69840;53.040;8.600;2023-05-07T11:50:06;12.30;;;7.75;;
80510;SDS011;69840;53.040;8.600;2023-05-07T11:52:35;8.63;;;5.75;;
80510;SDS011;69840;53.040;8.600;2023-05-07T11:55:03;10.32;;;6.80;;
80510;SDS011;69840;53.040;8.600;2023-05-07T11:57:32;8.88;;;7.28;;
80510;SDS011;69840;53.040;8.600;2023-05-07T12:00:00;9.52;;;7.13;;
80510;SDS011;69840;53.040;8.600;2023-05-07T12:02:38;8.07;;;6.57;;
80510;SDS011;69840;53.040;8.600;2023-05-07T12:05:05;8.20;;;6.63;;
80510;SDS011;69840;53.040;8.600;2023-05-07T12:07:34;10.77;;;6.30;;
80510;SDS011;69840;53.040;8.600;2023-05-07T12:10:05;10.30;;;6.70;;
80510;SDS011;69840;53.040;8.600;2023-05-07T12:12:40;8.57;;;6.05;;
80510;SDS011;69840;53.040;8.600;2023-05-07T12:15:08;8.02;;;6.15;;
80510;SDS011;69840;53.040;8.600;2023-05-07T12:17:35;9.82;;;6.15;;
80510;SDS011;69840;53.040;8.600;2023-05-07T12:20:04;6.18;;;5.50;;
80510;SDS011;69840;53.040;8.600;2023-05-07T12:22:32;7.65;;;6.15;;
80510;SDS011;69840;53.040;8.600;2023-05-07T12:24:59;7.65;;;5.40;;
80510;SDS011;69840;53.040;8.600;2023-05-07T12:27:27;8.13;;;5.78;;
80510;SDS011;69840;53.040;8.600;2023-05-07T12:29:54;8.32;;;6.10;;
80510;SDS011;69840;53.040;8.600;2023-05-07T12:32:24;7.55;;;5.93;;
80510;SDS011;69840;53.040;8.600;2023-05-07T12:34:52;8.23;;;6.18;;
80510;SDS011;69840;53.040;8.600;2023-05-07T12:37:23;7.28;;;6.05;;
80510;SDS011;69840;53.040;8.600;2023-05-07T12:40:04;6.80;;;5.72;;
80510;SDS011;69840;53.040;8.600;2023-05-07T12:42:35;7.53;;;5.90;;
80510;SDS011;69840;53.040;8.600;2023-05-07T12:45:11;8.20;;;5.85;;
80510;SDS011;69840;53.040;8.600;2023-05-07T12:47:43;8.35;;;5.72;;
80510;SDS011;69840;53.040;8.600;2023-05-07T12:50:11;6.22;;;5.50;;
80510;SDS011;69840;53.040;8.600;2023-05-07T12:52:39;6.75;;;5.15;;
80510;SDS011;69840;53.040;8.600;2023-05-07T12:55:07;7.07;;;5.97;;
80510;SDS011;69840;53.040;8.600;2023-05-07T12:57:47;6.97;;;5.57;;
80510;SDS011;69840;53.040;8.600;2023-05-07T13:00:16;7.47;;;5.85;;
80510;SDS011;69840;53.040;8.600;2023-05-07T13:02:44;5.90;;;5.30;;
80510;SDS011;69840;53.040;8.600;2023-05-07T13:05:12;6.45;;;5.82;;
80510;SDS011;69840;53.040;8.600;2023-05-07T13:07:40;7.68;;;5.78;;
80510;SDS011;69840;53.040;8.600;2023-05-07T13:10:08;6.75;;;4.90;;
80510;SDS011;69840;53.040;8.600;2023-05-07T13:12:36;7.40;;;5.25;;
80510;SDS011;69840;53.040;8.600;2023-05-07T13:15:03;8.27;;;5.93;;
80510;SDS011;69840;53.040;8.600;2023-05-07T13:17:31;5.95;;;5.35;;
80510;SDS011;69840;53.040;8.600;2023-05-07T13:19:59;6.90;;;5.40;;
80510;SDS011;69840;53.040;8.600;2023-05-07T13:22:26;6.18;;;5.25;;
80510;SDS011;69840;53.040;8.600;2023-05-07T13:24:54;8.70;;;5.60;;
80510;SDS011;69840;53.040;8.600;2023-05-07T13:27:21;7.50;;;5.25;;
80510;SDS011;69840;53.040;8.600;2023-05-07T13:29:48;6.38;;;5.50;;
80510;SDS011;69840;53.040;8.600;2023-05-07T13:32:16;6.45;;;5.18;;
80510;SDS011;69840;53.040;8.600;2023-05-07T13:34:43;6.35;;;5.40;;
80510;SDS011;69840;53.040;8.600;2023-05-07T13:37:11;6.35;;;5.55;;
80510;SDS011;69840;53.040;8.600;2023-05-07T13:39:38;6.03;;;5.22;;
80510;SDS011;69840;53.040;8.600;2023-05-07T13:42:06;6.40;;;5.22;;
80510;SDS011;69840;53.040;8.600;2023-05-07T13:44:34;6.20;;;5.32;;
80510;SDS011;69840;53.040;8.600;2023-05-07T13:47:01;6.25;;;5.07;;
80510;SDS011;69840;53.040;8.600;2023-05-07T13:49:29;5.57;;;4.75;;
80510;SDS011;69840;53.040;8.600;2023-05-07T13:51:56;8.68;;;5.22;;
80510;SDS011;69840;53.040;8.600;2023-05-07T13:54:24;6.10;;;5.00;;
80510;SDS011;69840;53.040;8.600;2023-05-07T13:56:51;5.45;;;4.38;;
80510;SDS011;69840;53.040;8.600;2023-05-07T13:59:18;5.28;;;4.70;;
80510;SDS011;69840;53.040;8.600;2023-05-07T14:01:46;7.72;;;4.05;;
80510;SDS011;69840;53.040;8.600;2023-05-07T14:04:13;5.90;;;3.85;;
80510;SDS011;69840;53.040;8.600;2023-05-07T14:06:41;5.05;;;4.55;;
80510;SDS011;69840;53.040;8.600;2023-05-07T14:09:08;5.97;;;4.53;;
80510;SDS011;69840;53.040;8.600;2023-05-07T14:11:36;5.70;;;4.72;;
80510;SDS011;69840;53.040;8.600;2023-05-07T14:14:03;7.18;;;4.47;;
80510;SDS011;69840;53.040;8.600;2023-05-07T14:16:30;5.53;;;4.55;;
80510;SDS011;69840;53.040;8.600;2023-05-07T14:19:01;5.55;;;4.65;;
80510;SDS011;69840;53.040;8.600;2023-05-07T14:21:28;5.85;;;4.63;;
80510;SDS011;69840;53.040;8.600;2023-05-07T14:23:56;5.82;;;4.47;;
80510;SDS011;69840;53.040;8.600;2023-05-07T14:26:24;8.35;;;5.95;;
80510;SDS011;69840;53.040;8.600;2023-05-07T14:28:51;5.43;;;4.93;;
80510;SDS011;69840;53.040;8.600;2023-05-07T14:31:18;5.85;;;5.30;;
80510;SDS011;69840;53.040;8.600;2023-05-07T14:33:46;5.35;;;4.72;;
80510;SDS011;69840;53.040;8.600;2023-05-07T14:36:13;7.38;;;5.35;;
80510;SDS011;69840;53.040;8.600;2023-05-07T14:38:41;6.22;;;4.22;;
80510;SDS011;69840;53.040;8.600;2023-05-07T14:41:08;7.57;;;6.05;;
80510;SDS011;69840;53.040;8.600;2023-05-07T14:43:36;6.10;;;5.53;;
80510;SDS011;69840;53.040;8.600;2023-05-07T14:46:03;5.38;;;4.40;;
80510;SDS011;69840;53.040;8.600;2023-05-07T14:48:31;7.32;;;5.68;;
80510;SDS011;69840;53.040;8.600;2023-05-07T14:50:58;5.63;;;4.65;;
80510;SDS011;69840;53.040;8.600;2023-05-07T14:53:26;6.70;;;5.82;;
80510;SDS011;69840;53.040;8.600;2023-05-07T14:55:53;6.50;;;5.90;;
80510;SDS011;69840;53.040;8.600;2023-05-07T14:58:21;6.13;;;5.50;;
80510;SDS011;69840;53.040;8.600;2023-05-07T15:00:48;6.13;;;5.53;;
80510;SDS011;69840;53.040;8.600;2023-05-07T15:03:16;6.53;;;5.00;;
80510;SDS011;69840;53.040;8.600;2023-05-07T15:05:44;5.82;;;4.85;;
80510;SDS011;69840;53.040;8.600;2023-05-07T15:08:12;5.60;;;5.10;;